EBCI/CRL METAR and TAF weather

Enter ICAO airport designator
Station Type Date Time Source
EBCI METAR 2020/07/12 18:50 UTC NOAA

EBCI 121850Z 04008KT CAVOK 18/07 Q1026 NOSIG


Station Type Date Time Source
EBCI Decoded METAR 2020/07/12 18:50 UTC NOAA

Charleroi / Gosselies, Belgium (EBCI) 50-28N 004-27E 192M
Jul 12, 2020 - 02:50 PM EDT / 2020.07.12 1850 UTC
Wind: from the NE (040 degrees) at 9 MPH (8 KT):0
Visibility: greater than 7 mile(s):0
Temperature: 64 F (18 C)
Dew Point: 44 F (7 C)
Relative Humidity: 48%
Pressure (altimeter): 30.30 in. Hg (1026 hPa)
ob: EBCI 121850Z 04008KT CAVOK 18/07 Q1026 NOSIG
cycle: 19

Station Type Date Time Source
EBCI TAF 2020/07/12 18:27 UTC NOAA

TAF EBCI 121703Z 1218/1324 03005KT 9999 FEW045

Example: see airport list